Time;durP1;ratioP1;P1;durP2;ratioP2;P2;SDS_P1;SDS_P2;PMS_P1;PMS_P2;Temp;Humidity;BMP_temperature;BMP_pressure;BME280_temperature;BME280_humidity;BME280_pressure;Samples;Min_cycle;Max_cycle;Signal;HPM_P1;HPM_P2
2020/12/13 00:02:06;;;;;;;12.73;9.40;;;6.10;99.90;;;;;;4969062;28;20029;-79
2020/12/13 00:04:32;;;;;;;15.32;9.27;;;6.10;99.90;;;;;;4969918;28;20019;-79
2020/12/13 00:06:57;;;;;;;12.95;9.32;;;6.20;99.90;;;;;;4970371;28;20122;-79
2020/12/13 00:09:23;;;;;;;14.77;9.77;;;6.30;99.90;;;;;;4970156;28;20085;-79
2020/12/13 00:11:51;;;;;;;11.40;8.30;;;6.30;99.90;;;;;;4970960;28;20081;-79
2020/12/13 00:14:17;;;;;;;10.27;7.63;;;6.40;99.90;;;;;;4970084;28;20027;-78
2020/12/13 00:16:42;;;;;;;9.35;6.63;;;6.50;99.90;;;;;;4971924;28;20105;-80
2020/12/13 00:19:08;;;;;;;9.73;7.10;;;6.60;99.90;;;;;;4971854;28;20027;-78
2020/12/13 00:21:34;;;;;;;9.88;7.00;;;6.70;99.90;;;;;;4951421;28;20033;-78
2020/12/13 00:24:00;;;;;;;8.10;6.40;;;6.90;99.90;;;;;;4985550;28;20484;-78
2020/12/13 00:26:26;;;;;;;10.27;6.47;;;6.90;99.90;;;;;;4969475;28;20077;-78
2020/12/13 00:28:52;;;;;;;13.35;7.13;;;6.90;99.90;;;;;;4970845;28;20421;-77
2020/12/13 00:31:18;;;;;;;11.90;6.95;;;6.90;99.90;;;;;;4972423;28;20031;-79
2020/12/13 00:33:44;;;;;;;9.98;6.50;;;6.90;99.90;;;;;;4972403;28;20062;-78
2020/12/13 00:36:10;;;;;;;10.95;6.85;;;6.90;99.90;;;;;;4971686;28;20070;-78
2020/12/13 00:38:36;;;;;;;10.52;7.10;;;6.70;99.90;;;;;;4972622;28;20034;-78
2020/12/13 00:41:01;;;;;;;10.88;7.13;;;6.80;99.90;;;;;;4971988;28;20111;-78
2020/12/13 00:43:27;;;;;;;10.30;6.88;;;6.80;99.90;;;;;;4972285;28;20034;-78
2020/12/13 00:45:53;;;;;;;9.40;7.05;;;6.80;99.90;;;;;;4972253;28;20490;-78
2020/12/13 00:48:18;;;;;;;10.38;8.13;;;6.80;99.90;;;;;;4972269;28;20367;-78
2020/12/13 00:50:44;;;;;;;10.70;7.60;;;6.60;99.90;;;;;;4972451;28;20069;-79
2020/12/13 00:53:09;;;;;;;9.25;6.75;;;6.60;99.90;;;;;;4971824;28;20018;-78
2020/12/13 00:55:35;;;;;;;8.73;6.75;;;6.60;99.90;;;;;;4971651;28;20038;-78
2020/12/13 00:58:01;;;;;;;9.98;6.82;;;6.50;99.90;;;;;;4971698;28;20359;-77
2020/12/13 01:00:27;;;;;;;10.02;6.95;;;6.60;99.90;;;;;;4969948;28;20027;-78
2020/12/13 01:02:57;;;;;;;10.25;7.22;;;6.70;99.90;;;;;;4970187;28;20038;-79
2020/12/13 01:05:26;;;;;;;10.63;7.20;;;6.60;99.90;;;;;;4969810;28;20058;-79
2020/12/13 01:07:52;;;;;;;8.82;6.68;;;6.50;99.90;;;;;;4969897;28;20505;-79
2020/12/13 01:10:19;;;;;;;12.05;7.88;;;6.60;99.90;;;;;;4969486;28;20034;-79
2020/12/13 01:12:44;;;;;;;9.25;6.97;;;6.60;99.90;;;;;;4970025;28;20023;-79
2020/12/13 01:15:10;;;;;;;9.98;6.57;;;6.60;99.90;;;;;;4968167;28;20033;-79
2020/12/13 01:17:36;;;;;;;9.30;7.35;;;6.70;99.90;;;;;;4970442;28;20078;-79
2020/12/13 01:20:04;;;;;;;9.70;6.55;;;6.60;99.90;;;;;;4970114;28;20466;-79
2020/12/13 01:22:34;;;;;;;11.43;7.63;;;6.70;99.90;;;;;;4969657;28;20034;-78
2020/12/13 01:25:00;;;;;;;11.23;8.07;;;6.60;99.90;;;;;;4936966;28;20034;-78
2020/12/13 01:27:25;;;;;;;10.02;7.63;;;6.50;99.90;;;;;;4960024;28;20030;-77
2020/12/13 01:29:51;;;;;;;13.23;8.43;;;6.40;99.90;;;;;;4966918;28;20115;-79
2020/12/13 01:32:17;;;;;;;13.48;7.80;;;6.40;99.90;;;;;;4966946;28;20552;-78
2020/12/13 01:34:42;;;;;;;10.68;7.20;;;6.50;99.90;;;;;;4968951;28;20084;-79
2020/12/13 01:37:08;;;;;;;10.57;7.68;;;6.40;99.90;;;;;;4968474;28;20477;-78
2020/12/13 01:39:33;;;;;;;8.40;6.55;;;6.60;99.90;;;;;;4968070;28;20066;-78
2020/12/13 01:41:59;;;;;;;8.93;6.88;;;6.60;99.90;;;;;;4969469;28;20023;-79
2020/12/13 01:44:33;;;;;;;10.05;6.90;;;6.60;99.90;;;;;;4970140;28;20038;-79
2020/12/13 01:47:00;;;;;;;9.73;6.90;;;6.60;99.90;;;;;;4969469;28;20117;-79
2020/12/13 01:49:41;;;;;;;9.55;6.82;;;6.60;99.90;;;;;;4968891;28;20027;-78
2020/12/13 01:55:19;;;;;;;12.68;7.80;;;6.60;99.90;;;;;;4969588;28;20037;-78
2020/12/13 01:57:51;;;;;;;9.60;7.63;;;6.50;99.90;;;;;;4966838;28;20055;-78
2020/12/13 02:00:17;;;;;;;12.25;8.55;;;6.50;99.90;;;;;;4970011;28;20050;-78
2020/12/13 02:02:47;;;;;;;10.95;7.53;;;6.30;99.90;;;;;;4968851;28;20104;-80
2020/12/13 02:05:13;;;;;;;12.85;8.77;;;6.30;99.90;;;;;;4967742;28;20050;-78
2020/12/13 02:07:41;;;;;;;10.83;8.20;;;6.30;99.90;;;;;;4966811;28;20815;-79
2020/12/13 02:10:08;;;;;;;;;;;6.20;99.90;;;;;;4969446;28;20023;-78
2020/12/13 02:12:35;;;;;;;14.33;9.27;;;6.10;99.90;;;;;;4968870;28;19937;-80
2020/12/13 02:15:03;;;;;;;10.98;8.27;;;6.00;99.90;;;;;;4967743;28;20278;-78
2020/12/13 02:17:29;;;;;;;10.80;7.90;;;6.10;99.90;;;;;;4968526;28;20504;-78
2020/12/13 02:19:56;;;;;;;14.07;10.00;;;6.20;99.90;;;;;;4975929;28;20536;-79
2020/12/13 02:22:21;;;;;;;13.50;10.07;;;6.30;99.90;;;;;;4974345;28;20023;-78
2020/12/13 02:24:47;;;;;;;15.38;10.02;;;6.30;99.90;;;;;;4973785;28;20031;-78
2020/12/13 02:27:13;;;;;;;11.95;7.85;;;6.30;99.90;;;;;;4976313;28;20023;-79
2020/12/13 02:29:39;;;;;;;9.95;7.07;;;6.50;99.90;;;;;;4976837;28;20469;-78
2020/12/13 02:32:05;;;;;;;10.07;7.93;;;6.60;99.90;;;;;;4975501;28;20181;-79
2020/12/13 02:34:30;;;;;;;11.18;8.55;;;6.70;99.90;;;;;;4973081;28;20465;-78
2020/12/13 02:36:56;;;;;;;10.52;8.27;;;6.60;99.90;;;;;;4974974;28;20034;-78
2020/12/13 02:39:22;;;;;;;9.63;7.57;;;6.40;99.90;;;;;;4974529;28;20040;-78
2020/12/13 02:41:59;;;;;;;9.23;7.18;;;6.40;99.90;;;;;;4975767;28;20053;-78
2020/12/13 02:44:25;;;;;;;12.32;8.40;;;6.60;99.90;;;;;;4974564;28;20054;-78
2020/12/13 02:46:50;;;;;;;14.45;9.35;;;6.70;99.90;;;;;;4970049;28;20030;-78
2020/12/13 02:49:16;;;;;;;12.23;8.68;;;6.80;99.90;;;;;;4973182;28;20477;-77
2020/12/13 02:51:42;;;;;;;10.80;7.05;;;6.80;99.90;;;;;;4975399;28;20022;-78
2020/12/13 02:54:07;;;;;;;9.57;6.90;;;6.70;99.90;;;;;;4974677;28;20513;-78
2020/12/13 02:56:38;;;;;;;9.30;6.85;;;6.80;99.90;;;;;;4975403;28;20023;-79
2020/12/13 02:59:04;;;;;;;10.10;6.82;;;6.80;99.90;;;;;;4973548;28;20038;-79
2020/12/13 03:01:29;;;;;;;8.68;6.60;;;6.80;99.90;;;;;;4974863;28;20425;-79
2020/12/13 03:04:04;;;;;;;11.00;7.00;;;6.80;99.90;;;;;;4976899;28;20093;-79
2020/12/13 03:06:30;;;;;;;9.30;6.90;;;6.80;99.90;;;;;;4976566;28;20094;-79
2020/12/13 03:08:56;;;;;;;13.02;7.80;;;6.70;99.90;;;;;;4976546;28;20471;-78
2020/12/13 03:11:22;;;;;;;9.15;7.65;;;6.50;99.90;;;;;;4976192;28;20679;-78
2020/12/13 03:13:52;;;;;;;10.05;7.38;;;6.30;99.90;;;;;;4976114;28;20405;-79
2020/12/13 03:16:18;;;;;;;11.43;8.30;;;6.20;99.90;;;;;;4977128;28;20144;-78
2020/12/13 03:18:44;;;;;;;10.85;8.23;;;6.00;99.90;;;;;;4977111;28;20077;-78
2020/12/13 03:21:10;;;;;;;12.93;8.73;;;5.80;99.90;;;;;;4977322;28;20020;-78
2020/12/13 03:23:36;;;;;;;15.45;9.63;;;5.70;99.90;;;;;;4977465;28;20099;-78
2020/12/13 03:26:01;;;;;;;16.63;10.38;;;5.60;99.90;;;;;;4976933;28;20031;-79
2020/12/13 03:28:27;;;;;;;13.38;9.73;;;5.30;99.90;;;;;;4976211;28;20106;-79
2020/12/13 03:30:53;;;;;;;15.18;10.30;;;5.20;99.90;;;;;;4988762;28;20117;-78
2020/12/13 03:33:18;;;;;;;12.13;8.93;;;5.30;99.90;;;;;;4974159;28;20546;-78
2020/12/13 03:35:44;;;;;;;11.73;8.15;;;5.40;99.90;;;;;;4974093;28;20031;-79
2020/12/13 03:38:10;;;;;;;9.52;7.53;;;5.70;99.90;;;;;;4974253;28;20073;-78
2020/12/13 03:40:36;;;;;;;11.25;7.18;;;5.80;99.90;;;;;;4973975;28;20038;-78
2020/12/13 03:43:02;;;;;;;8.85;6.25;;;5.80;99.90;;;;;;4972924;28;20385;-78
2020/12/13 03:45:27;;;;;;;8.02;6.43;;;6.10;99.90;;;;;;4973843;28;20034;-79
2020/12/13 03:47:53;;;;;;;9.13;6.78;;;6.20;99.90;;;;;;4973918;28;20027;-79
2020/12/13 03:50:18;;;;;;;12.05;7.55;;;6.30;99.90;;;;;;4973974;28;20058;-79
2020/12/13 03:52:44;;;;;;;9.63;7.18;;;6.30;99.90;;;;;;4973972;28;20030;-79
2020/12/13 03:55:10;;;;;;;9.57;6.82;;;6.30;99.90;;;;;;4973174;28;20053;-79
2020/12/13 03:57:35;;;;;;;9.80;6.40;;;6.30;99.90;;;;;;4974129;28;20078;-78
2020/12/13 04:00:03;;;;;;;10.80;6.78;;;6.60;99.90;;;;;;4988676;28;20027;-79
2020/12/13 04:02:28;;;;;;;;;;;6.50;99.90;;;;;;4971408;28;20370;-78
2020/12/13 04:04:54;;;;;;;10.35;6.20;;;6.30;99.90;;;;;;4971162;28;19913;-79
2020/12/13 04:07:19;;;;;;;10.27;6.43;;;6.30;99.90;;;;;;4971887;28;20035;-79
2020/12/13 04:09:45;;;;;;;7.80;5.57;;;6.50;99.90;;;;;;4971514;28;20034;-79
2020/12/13 04:12:11;;;;;;;8.13;5.75;;;6.50;99.90;;;;;;4971038;28;20033;-78
2020/12/13 04:14:36;;;;;;;7.93;5.25;;;6.70;99.90;;;;;;4971094;28;20481;-78
2020/12/13 04:17:02;;;;;;;8.35;4.93;;;6.70;99.90;;;;;;4970422;28;20266;-79
2020/12/13 04:19:31;;;;;;;7.55;5.10;;;6.60;99.90;;;;;;4969669;28;20492;-78
2020/12/13 04:21:57;;;;;;;6.70;5.13;;;6.60;99.90;;;;;;4969559;28;20400;-79
2020/12/13 04:24:22;;;;;;;6.55;4.97;;;6.70;99.90;;;;;;4969058;28;20026;-78
2020/12/13 04:26:48;;;;;;;7.32;5.28;;;6.60;99.90;;;;;;4971238;28;20429;-79
2020/12/13 04:29:14;;;;;;;6.72;4.97;;;6.60;99.90;;;;;;4970831;28;20062;-79
2020/12/13 04:31:39;;;;;;;6.80;5.10;;;6.60;99.90;;;;;;4970568;28;20154;-79
2020/12/13 04:34:05;;;;;;;7.60;4.93;;;6.70;99.90;;;;;;4969946;28;20049;-79
2020/12/13 04:36:31;;;;;;;6.38;4.68;;;6.60;99.90;;;;;;4970367;28;20740;-79
2020/12/13 04:38:56;;;;;;;7.07;5.00;;;6.70;99.90;;;;;;4971509;28;20469;-77
2020/12/13 04:41:22;;;;;;;6.50;5.10;;;6.70;99.90;;;;;;4971265;28;20035;-78
2020/12/13 04:43:49;;;;;;;9.57;5.47;;;6.60;99.90;;;;;;4970070;28;20023;-78
2020/12/13 04:46:15;;;;;;;7.35;5.30;;;6.60;99.90;;;;;;4969639;28;20034;-78
2020/12/13 04:48:41;;;;;;;7.40;5.13;;;6.60;99.90;;;;;;4969641;28;20031;-78
2020/12/13 04:51:08;;;;;;;7.22;5.20;;;6.60;99.90;;;;;;4971173;28;20031;-78
2020/12/13 04:53:37;;;;;;;7.35;5.07;;;6.60;99.90;;;;;;4969867;28;20023;-78
2020/12/13 04:56:10;;;;;;;7.53;4.63;;;6.50;99.90;;;;;;4970834;28;20481;-79
2020/12/13 04:58:36;;;;;;;6.95;4.70;;;6.40;99.90;;;;;;4972535;28;20026;-78
2020/12/13 05:01:03;;;;;;;6.47;4.90;;;6.40;99.90;;;;;;4972381;28;20023;-79
2020/12/13 05:03:30;;;;;;;7.88;5.22;;;6.40;99.90;;;;;;4973151;28;20044;-79
2020/12/13 05:06:01;;;;;;;6.57;5.20;;;6.40;99.90;;;;;;4971029;28;20031;-78
2020/12/13 05:08:27;;;;;;;6.65;4.70;;;6.40;99.90;;;;;;4971679;28;20031;-79
2020/12/13 05:10:53;;;;;;;6.97;4.97;;;6.50;99.90;;;;;;4971773;28;20058;-77
2020/12/13 05:13:18;;;;;;;5.70;4.35;;;6.40;99.90;;;;;;4970788;28;20068;-79
2020/12/13 05:15:44;;;;;;;6.63;4.30;;;6.50;99.90;;;;;;4969063;28;20034;-79
2020/12/13 05:18:10;;;;;;;7.30;4.72;;;6.50;99.90;;;;;;4969486;28;20038;-79
2020/12/13 05:20:35;;;;;;;6.43;4.53;;;6.50;99.90;;;;;;4969124;28;20054;-78
2020/12/13 05:23:01;;;;;;;6.30;4.78;;;6.40;99.90;;;;;;4969982;28;20073;-78
2020/12/13 05:25:30;;;;;;;6.32;4.70;;;6.30;99.90;;;;;;4968160;28;20027;-79
2020/12/13 05:27:59;;;;;;;6.28;4.47;;;6.20;99.90;;;;;;4968667;28;20034;-78
2020/12/13 05:30:34;;;;;;;7.03;4.50;;;6.30;99.90;;;;;;4969685;28;20030;-79
2020/12/13 05:33:01;;;;;;;7.65;4.32;;;6.30;99.90;;;;;;4968937;28;20118;-78
2020/12/13 05:35:28;;;;;;;7.57;4.95;;;6.50;99.90;;;;;;4968556;28;20048;-78
2020/12/13 05:37:54;;;;;;;8.80;4.50;;;6.50;99.90;;;;;;4969481;28;20023;-78
2020/12/13 05:40:21;;;;;;;7.78;4.70;;;6.50;99.90;;;;;;4968141;28;20022;-79
2020/12/13 05:42:54;;;;;;;6.50;3.85;;;6.50;99.90;;;;;;4970169;28;20374;-79
2020/12/13 05:50:59;;;;;;;5.45;4.10;;;6.50;99.90;;;;;;4969700;28;20097;-79
2020/12/13 05:53:24;;;;;;;6.60;4.47;;;6.50;99.90;;;;;;4967120;28;20480;-79
2020/12/13 05:55:53;;;;;;;6.13;4.35;;;6.60;99.90;;;;;;4968669;28;20043;-78
2020/12/13 05:58:20;;;;;;;6.65;4.13;;;6.50;99.90;;;;;;4967638;28;20033;-78
2020/12/13 06:00:46;;;;;;;6.35;4.20;;;6.50;99.90;;;;;;4967754;28;20027;-79
2020/12/13 06:03:17;;;;;;;6.25;4.65;;;6.50;99.90;;;;;;4969025;28;20042;-79
2020/12/13 06:05:43;;;;;;;9.40;5.13;;;6.60;99.90;;;;;;4968852;28;20031;-79
2020/12/13 06:08:14;;;;;;;5.30;3.60;;;6.60;99.90;;;;;;4967629;28;20034;-79
2020/12/13 06:10:42;;;;;;;4.38;3.20;;;6.80;99.90;;;;;;4969205;28;20106;-79
2020/12/13 06:13:08;;;;;;;5.10;3.42;;;6.70;99.90;;;;;;4967522;28;20043;-79
2020/12/13 06:15:35;;;;;;;4.95;3.22;;;6.80;99.90;;;;;;4966746;28;20038;-78
2020/12/13 06:18:02;;;;;;;6.40;3.08;;;6.70;99.90;;;;;;4967874;28;20029;-79
2020/12/13 06:20:29;;;;;;;4.55;3.08;;;6.60;99.90;;;;;;4967967;28;20062;-78
2020/12/13 06:22:56;;;;;;;5.25;2.78;;;6.80;99.90;;;;;;4968140;28;20030;-78
2020/12/13 06:25:23;;;;;;;3.70;2.60;;;6.80;99.90;;;;;;4967246;28;20034;-79
2020/12/13 06:27:50;;;;;;;3.65;2.80;;;6.90;99.90;;;;;;4968988;28;20062;-79
2020/12/13 06:30:16;;;;;;;;;;;6.90;99.90;;;;;;4968345;28;20027;-78
2020/12/13 06:32:44;;;;;;;6.53;2.95;;;6.90;99.90;;;;;;4967651;28;20000;-79
2020/12/13 06:35:10;;;;;;;4.50;2.50;;;6.80;99.90;;;;;;4967102;28;20045;-78
2020/12/13 06:37:37;;;;;;;3.97;2.53;;;6.90;99.90;;;;;;4967027;28;20023;-78
2020/12/13 06:40:20;;;;;;;5.40;3.30;;;6.90;99.90;;;;;;4967733;28;20725;-79
2020/12/13 06:42:47;;;;;;;3.95;2.97;;;6.80;99.90;;;;;;4968477;28;20093;-79
2020/12/13 06:45:14;;;;;;;4.65;3.42;;;6.60;99.90;;;;;;4967914;28;20027;-78
2020/12/13 06:47:44;;;;;;;5.13;3.63;;;6.50;99.90;;;;;;4968408;28;20058;-79
2020/12/13 06:50:21;;;;;;;5.15;3.47;;;6.40;99.90;;;;;;4966946;28;20171;-78
2020/12/13 06:52:52;;;;;;;4.57;3.15;;;6.40;99.90;;;;;;4968113;28;20030;-78
2020/12/13 06:55:29;;;;;;;4.93;3.72;;;6.30;99.90;;;;;;4968106;28;20489;-78
2020/12/13 06:57:55;;;;;;;5.70;3.67;;;6.30;99.90;;;;;;4968569;28;20027;-79
2020/12/13 07:00:21;;;;;;;7.15;4.25;;;6.20;99.90;;;;;;4966679;28;20049;-79
2020/12/13 07:02:46;;;;;;;8.15;4.63;;;6.30;99.90;;;;;;4966981;28;20871;-78
2020/12/13 07:05:13;;;;;;;9.77;5.05;;;6.10;99.90;;;;;;4970517;28;20405;-78
2020/12/13 07:07:39;;;;;;;7.28;5.43;;;6.10;99.90;;;;;;4970879;28;20061;-79
2020/12/13 07:10:06;;;;;;;7.13;5.47;;;6.10;99.90;;;;;;4972097;28;20026;-78
2020/12/13 07:12:32;;;;;;;7.70;5.78;;;6.10;99.90;;;;;;4971929;28;20362;-79
2020/12/13 07:14:58;;;;;;;7.60;5.63;;;6.20;99.90;;;;;;4970154;28;20511;-79
2020/12/13 07:17:32;;;;;;;6.95;4.88;;;6.30;99.90;;;;;;4971892;28;20480;-79
2020/12/13 07:20:00;;;;;;;7.50;5.28;;;6.30;99.90;;;;;;4971547;28;20762;-80
2020/12/13 07:22:32;;;;;;;;;;;6.30;99.90;;;;;;4972046;28;20388;-77
2020/12/13 07:24:57;;;;;;;6.55;4.72;;;6.40;99.90;;;;;;4971239;28;20371;-79
2020/12/13 07:27:26;;;;;;;6.90;4.40;;;6.40;99.90;;;;;;4971312;28;20086;-79
2020/12/13 07:29:55;;;;;;;6.40;4.13;;;6.40;99.90;;;;;;4971293;28;20065;-79
2020/12/13 07:32:22;;;;;;;5.53;3.67;;;6.40;99.90;;;;;;4971409;28;20556;-78
2020/12/13 07:34:48;;;;;;;5.25;3.42;;;6.30;99.90;;;;;;4971800;28;20503;-78
2020/12/13 07:37:16;;;;;;;6.32;3.67;;;6.30;99.90;;;;;;4971757;28;20548;-79
2020/12/13 07:39:42;;;;;;;6.78;3.63;;;6.20;99.90;;;;;;4972634;28;20035;-79
2020/12/13 07:42:08;;;;;;;5.72;4.10;;;6.20;99.90;;;;;;4971840;28;20078;-79
2020/12/13 07:44:34;;;;;;;8.30;3.50;;;6.30;99.90;;;;;;4970756;28;20117;-79
2020/12/13 07:46:59;;;;;;;5.57;2.88;;;6.30;99.90;;;;;;4970143;28;20126;-78
2020/12/13 07:49:25;;;;;;;5.32;2.83;;;6.30;99.90;;;;;;4972355;28;20373;-79
2020/12/13 07:51:53;;;;;;;5.72;2.90;;;6.40;99.90;;;;;;4969951;28;20473;-78
2020/12/13 07:54:32;;;;;;;4.70;2.80;;;6.40;99.90;;;;;;4970952;28;20078;-79
2020/12/13 07:57:06;;;;;;;4.30;2.88;;;6.30;99.90;;;;;;4972131;28;20041;-78
2020/12/13 07:59:32;;;;;;;3.30;2.10;;;6.30;99.90;;;;;;4971354;28;20033;-78
2020/12/13 08:01:58;;;;;;;3.38;2.15;;;6.30;99.90;;;;;;4972066;28;20030;-79
2020/12/13 08:04:30;;;;;;;6.03;2.33;;;6.30;99.90;;;;;;4970875;28;20023;-79
2020/12/13 08:07:00;;;;;;;3.13;2.28;;;6.20;99.90;;;;;;4970744;28;20477;-78
2020/12/13 08:09:27;;;;;;;5.55;2.58;;;6.10;99.90;;;;;;4970821;28;20031;-78
2020/12/13 08:11:53;;;;;;;4.70;3.17;;;6.20;99.90;;;;;;4970940;28;20081;-78
2020/12/13 08:14:23;;;;;;;4.53;2.63;;;6.40;99.90;;;;;;4972170;28;20038;-79
2020/12/13 08:16:54;;;;;;;5.95;3.28;;;6.40;99.90;;;;;;4970508;28;20031;-78
2020/12/13 08:19:41;;;;;;;5.22;2.67;;;6.50;99.90;;;;;;4971733;28;20481;-78
2020/12/13 08:22:13;;;;;;;3.60;2.55;;;6.50;99.90;;;;;;4971928;28;20061;-80
2020/12/13 08:24:39;;;;;;;3.97;2.30;;;6.70;99.90;;;;;;4969492;28;20034;-78
2020/12/13 08:27:06;;;;;;;4.88;2.50;;;6.80;99.90;;;;;;4969502;28;20053;-79
2020/12/13 08:29:33;;;;;;;3.97;2.53;;;6.90;99.90;;;;;;4970758;28;20105;-78
2020/12/13 08:32:00;;;;;;;4.45;2.28;;;7.10;99.90;;;;;;4969046;28;20270;-78
2020/12/13 08:34:30;;;;;;;3.17;1.90;;;7.20;99.90;;;;;;4970060;28;20035;-77
2020/12/13 08:36:59;;;;;;;3.75;2.08;;;7.40;99.90;;;;;;4970271;28;20027;-79
2020/12/13 08:39:32;;;;;;;3.33;2.00;;;7.40;99.90;;;;;;4970314;28;20389;-78
2020/12/13 08:41:59;;;;;;;3.60;2.20;;;7.30;99.90;;;;;;4969000;28;20481;-79
2020/12/13 08:44:30;;;;;;;3.00;1.85;;;7.40;99.90;;;;;;4968377;28;20141;-79
2020/12/13 08:46:59;;;;;;;3.50;2.03;;;7.40;99.90;;;;;;4969006;28;20035;-78
2020/12/13 08:49:26;;;;;;;3.35;2.08;;;7.60;99.90;;;;;;4968885;28;20038;-79
2020/12/13 08:51:52;;;;;;;6.38;2.35;;;7.80;99.90;;;;;;4972373;28;20023;-77
2020/12/13 08:54:18;;;;;;;4.95;2.40;;;8.10;99.90;;;;;;4971684;28;20035;-78
2020/12/13 08:56:43;;;;;;;4.25;2.50;;;8.30;99.90;;;;;;4970468;28;20019;-78
2020/12/13 08:59:09;;;;;;;3.80;2.35;;;8.40;99.90;;;;;;4970159;28;20030;-79
2020/12/13 09:01:38;;;;;;;4.10;2.30;;;8.40;99.90;;;;;;4970060;28;20027;-78
2020/12/13 09:04:17;;;;;;;3.53;2.80;;;8.50;99.90;;;;;;4969442;28;20390;-78
2020/12/13 09:06:55;;;;;;;6.10;3.30;;;8.40;99.90;;;;;;4968396;28;20107;-78
2020/12/13 09:09:22;;;;;;;5.15;2.85;;;8.40;99.90;;;;;;4969866;28;20390;-78
2020/12/13 09:11:48;;;;;;;3.72;2.50;;;8.60;99.90;;;;;;4969554;28;20027;-77
2020/12/13 09:14:31;;;;;;;4.95;2.45;;;8.50;99.90;;;;;;4969183;28;20033;-78
2020/12/13 09:16:58;;;;;;;3.95;2.25;;;8.40;99.90;;;;;;4969856;28;20018;-75
2020/12/13 09:19:24;;;;;;;3.05;2.08;;;8.50;99.90;;;;;;4969895;28;20481;-77
2020/12/13 09:21:56;;;;;;;3.47;2.20;;;8.70;99.90;;;;;;4969414;28;20038;-76
2020/12/13 09:24:25;;;;;;;4.10;2.22;;;8.80;99.90;;;;;;4970274;28;20026;-78
2020/12/13 09:27:08;;;;;;;3.65;2.13;;;8.80;99.90;;;;;;4970360;28;20034;-76
2020/12/13 09:29:36;;;;;;;3.05;1.98;;;8.70;99.90;;;;;;4968992;28;20393;-78
2020/12/13 09:32:04;;;;;;;3.78;2.13;;;8.60;99.90;;;;;;4970035;28;20036;-79
2020/12/13 09:34:29;;;;;;;4.32;2.10;;;8.50;99.90;;;;;;4968261;28;20038;-76
2020/12/13 09:36:55;;;;;;;4.75;2.08;;;8.30;99.90;;;;;;4968307;28;20035;-78
2020/12/13 09:39:21;;;;;;;3.38;2.10;;;8.30;99.90;;;;;;4971251;28;20023;-77
2020/12/13 09:41:47;;;;;;;3.70;2.40;;;8.20;99.90;;;;;;4970705;28;20018;-78
2020/12/13 09:44:13;;;;;;;5.85;2.03;;;8.10;99.90;;;;;;4970165;28;20053;-78
2020/12/13 09:46:39;;;;;;;3.65;2.10;;;8.10;99.90;;;;;;4970085;28;20474;-77
2020/12/13 09:49:05;;;;;;;5.90;4.70;;;8.10;99.90;;;;;;4968876;28;20521;-78
2020/12/13 09:51:30;;;;;;;3.53;2.13;;;8.10;99.90;;;;;;4968501;28;20037;-76
2020/12/13 09:53:56;;;;;;;4.25;2.30;;;8.10;99.90;;;;;;4968196;28;20038;-78
2020/12/13 09:56:22;;;;;;;5.18;2.47;;;8.10;99.90;;;;;;4969273;28;20031;-78
2020/12/13 09:58:48;;;;;;;3.80;2.55;;;8.10;99.90;;;;;;4970048;28;20164;-76
2020/12/13 10:01:15;;;;;;;5.43;3.10;;;8.10;99.90;;;;;;4968886;28;20018;-78
2020/12/13 10:03:45;;;;;;;6.35;3.00;;;8.10;99.90;;;;;;4970561;28;20023;-77
2020/12/13 10:07:11;;;;;;;5.53;3.10;;;8.10;99.90;;;;;;4967986;28;20540;-76
2020/12/13 10:09:08;;;;;;;5.15;2.70;;;8.00;99.90;;;;;;4969321;28;20038;-78
2020/12/13 10:11:35;;;;;;;4.20;2.65;;;7.90;99.90;;;;;;4968586;28;20034;-77
2020/12/13 10:14:01;;;;;;;;;;;7.70;99.90;;;;;;4968348;28;20210;-77
2020/12/13 10:16:27;;;;;;;5.63;2.72;;;7.70;99.90;;;;;;4967929;28;20000;-77
2020/12/13 10:18:53;;;;;;;4.57;2.83;;;7.60;99.90;;;;;;4969833;28;20084;-77
2020/12/13 10:21:24;;;;;;;6.03;2.42;;;7.70;99.90;;;;;;4981407;28;20023;-78
2020/12/13 10:23:50;;;;;;;4.47;2.88;;;7.70;99.90;;;;;;4949557;28;20126;-78
2020/12/13 10:26:16;;;;;;;4.80;2.67;;;7.70;99.90;;;;;;4950487;29;20094;-78
2020/12/13 10:28:42;;;;;;;5.57;2.80;;;7.80;99.90;;;;;;4950117;28;20432;-78
2020/12/13 10:31:10;;;;;;;6.53;3.13;;;7.90;99.90;;;;;;4955878;28;20035;-79
2020/12/13 10:33:39;;;;;;;7.95;4.90;;;7.90;99.90;;;;;;4969666;28;20034;-78
2020/12/13 10:36:06;;;;;;;5.03;2.90;;;7.90;99.90;;;;;;4967669;28;20550;-77
2020/12/13 10:38:32;;;;;;;4.57;2.57;;;8.00;99.90;;;;;;4969496;28;20106;-77
2020/12/13 10:40:57;;;;;;;5.60;2.70;;;8.00;99.90;;;;;;4973553;28;20109;-77
2020/12/13 10:43:23;;;;;;;4.70;2.75;;;8.00;99.90;;;;;;4973506;28;20027;-78
2020/12/13 10:45:49;;;;;;;4.68;2.70;;;8.10;99.90;;;;;;4970994;28;20035;-77
2020/12/13 10:48:15;;;;;;;4.68;2.60;;;8.10;99.90;;;;;;4971751;28;20102;-76
2020/12/13 10:50:41;;;;;;;5.05;2.70;;;8.00;99.90;;;;;;4972936;28;20031;-78
2020/12/13 10:53:07;;;;;;;6.22;2.90;;;8.10;99.90;;;;;;4973638;28;20027;-78
2020/12/13 10:55:32;;;;;;;4.57;2.70;;;8.00;99.90;;;;;;4973300;28;20080;-77
2020/12/13 10:57:58;;;;;;;7.40;2.42;;;7.90;99.90;;;;;;4972846;28;20054;-77
2020/12/13 11:00:24;;;;;;;3.70;2.60;;;7.90;99.90;;;;;;4973149;28;20140;-77
2020/12/13 11:02:51;;;;;;;4.03;2.42;;;7.80;99.90;;;;;;4973132;28;20512;-79
2020/12/13 11:05:17;;;;;;;5.70;2.70;;;7.80;99.90;;;;;;4970429;28;20034;-78
2020/12/13 11:07:43;;;;;;;4.50;2.60;;;7.70;99.90;;;;;;4971515;28;20278;-78
2020/12/13 11:10:08;;;;;;;4.07;2.30;;;7.80;99.90;;;;;;4972007;28;20035;-77
2020/12/13 11:12:34;;;;;;;4.88;2.38;;;7.80;99.90;;;;;;4971291;28;20073;-78
2020/12/13 11:15:00;;;;;;;4.05;2.28;;;7.90;99.90;;;;;;4970610;28;20069;-78
2020/12/13 11:17:25;;;;;;;4.65;2.10;;;7.90;99.90;;;;;;4970495;28;20066;-79
2020/12/13 11:19:51;;;;;;;3.03;2.00;;;8.10;99.90;;;;;;4970079;28;20050;-77
2020/12/13 11:22:16;;;;;;;4.55;2.20;;;8.20;99.90;;;;;;4972038;28;20463;-79
2020/12/13 11:24:42;;;;;;;4.40;2.10;;;8.30;99.90;;;;;;4971909;28;20406;-79
2020/12/13 11:27:07;;;;;;;5.82;2.38;;;8.30;99.90;;;;;;4970796;28;20089;-79
2020/12/13 11:29:36;;;;;;;3.20;1.90;;;8.30;99.90;;;;;;4971704;28;20528;-79
2020/12/13 11:32:03;;;;;;;3.50;2.20;;;8.40;99.90;;;;;;4971141;28;20082;-78
2020/12/13 11:34:28;;;;;;;4.95;2.30;;;8.30;99.90;;;;;;4970191;28;20035;-79
2020/12/13 11:36:54;;;;;;;3.92;2.00;;;8.20;99.90;;;;;;4973592;28;20019;-80
2020/12/13 11:39:20;;;;;;;3.92;2.00;;;8.20;99.90;;;;;;4988694;28;20543;-78
2020/12/13 11:41:45;;;;;;;3.15;2.05;;;8.20;99.90;;;;;;4956595;28;21167;-79
2020/12/13 11:44:11;;;;;;;2.75;1.90;;;8.30;99.90;;;;;;4964700;28;20035;-79
2020/12/13 11:46:37;;;;;;;4.47;1.90;;;8.30;99.90;;;;;;4970111;28;20477;-78
2020/12/13 11:49:02;;;;;;;4.90;2.05;;;8.30;99.90;;;;;;4972836;28;20030;-78
2020/12/13 11:51:28;;;;;;;3.75;1.83;;;8.20;99.90;;;;;;4986657;28;20095;-78
2020/12/13 11:53:54;;;;;;;2.80;1.60;;;8.10;99.90;;;;;;4970575;28;20373;-79
2020/12/13 11:56:23;;;;;;;2.63;1.65;;;8.00;99.90;;;;;;4970589;28;20038;-78
2020/12/13 11:58:49;;;;;;;2.83;1.63;;;8.00;99.90;;;;;;4971817;28;20027;-79
2020/12/13 12:01:19;;;;;;;3.80;2.00;;;8.00;99.90;;;;;;4972525;28;20031;-79
2020/12/13 12:03:45;;;;;;;2.70;1.63;;;8.00;99.90;;;;;;4972117;28;20419;-78
2020/12/13 12:06:14;;;;;;;6.32;3.13;;;8.00;99.90;;;;;;4970621;28;20030;-78
2020/12/13 12:08:42;;;;;;;5.00;2.55;;;8.10;99.90;;;;;;4970879;28;20034;-78
2020/12/13 12:11:08;;;;;;;5.03;2.95;;;8.00;99.90;;;;;;4987030;28;20031;-78
2020/12/13 12:13:34;;;;;;;3.78;1.85;;;8.10;99.90;;;;;;4969862;28;20062;-77
2020/12/13 12:16:00;;;;;;;2.80;1.70;;;8.10;99.90;;;;;;4970182;28;20105;-78
2020/12/13 12:18:26;;;;;;;3.30;2.00;;;8.00;99.90;;;;;;4971905;28;20081;-78
2020/12/13 12:20:53;;;;;;;3.05;2.00;;;8.00;99.90;;;;;;4971842;28;20027;-78
2020/12/13 12:23:19;;;;;;;4.05;2.08;;;7.80;99.90;;;;;;4969813;28;20050;-78
2020/12/13 12:25:51;;;;;;;3.30;1.80;;;7.80;99.90;;;;;;4971423;28;20058;-79
2020/12/13 12:28:17;;;;;;;3.38;1.95;;;7.80;99.90;;;;;;4970025;28;20441;-77
2020/12/13 12:30:44;;;;;;;3.60;1.80;;;7.80;99.90;;;;;;4971601;28;20031;-78
2020/12/13 12:33:10;;;;;;;3.80;2.10;;;7.80;99.90;;;;;;4969483;28;20122;-78
2020/12/13 12:35:36;;;;;;;3.30;1.98;;;7.80;99.90;;;;;;4968321;28;20097;-77
2020/12/13 12:38:01;;;;;;;4.30;1.83;;;7.80;99.90;;;;;;4971321;28;20477;-77
2020/12/13 12:40:27;;;;;;;3.28;2.00;;;7.80;99.90;;;;;;4971314;28;20478;-77
2020/12/13 12:42:53;;;;;;;2.97;1.80;;;7.90;99.90;;;;;;4970598;28;20029;-77
2020/12/13 12:45:19;;;;;;;3.88;1.90;;;7.90;99.90;;;;;;4968714;28;20038;-76
2020/12/13 12:47:45;;;;;;;3.67;2.08;;;7.90;99.90;;;;;;4970872;28;20027;-77
2020/12/13 12:50:10;;;;;;;3.22;1.75;;;7.90;99.90;;;;;;4970869;28;20035;-77
2020/12/13 12:52:36;;;;;;;2.60;1.65;;;8.00;99.90;;;;;;4971172;28;20027;-77
2020/12/13 12:55:02;;;;;;;3.15;1.70;;;8.00;99.90;;;;;;4968547;28;20571;-78
2020/12/13 12:57:28;;;;;;;3.17;1.60;;;8.00;99.90;;;;;;4969324;28;20023;-78
2020/12/13 13:02:23;;;;;;;3.08;1.42;;;7.90;99.90;;;;;;4970230;28;20023;-77
2020/12/13 13:05:00;;;;;;;3.80;1.40;;;8.10;99.90;;;;;;4969790;28;20066;-77
2020/12/13 13:07:30;;;;;;;3.05;1.30;;;8.10;99.90;;;;;;4969731;28;20034;-77